Time;durP1;ratioP1;P1;durP2;ratioP2;P2;SDS_P1;SDS_P2;PMS_P1;PMS_P2;Temp;Humidity;BMP_temperature;BMP_pressure;BME280_temperature;BME280_humidity;BME280_pressure;Samples;Min_cycle;Max_cycle;Signal;HPM_P1;HPM_P2
2022/08/28 00:02:22;;;;;;;;;;;;;;;-142.75;100.00;77391.22;5057879;28;19923;-67
2022/08/28 00:04:47;;;;;;;;;;;;;;;-142.75;100.00;77391.22;5058353;28;20294;-67
2022/08/28 00:07:12;;;;;;;;;;;;;;;-142.75;100.00;77391.22;5057082;28;19920;-67
2022/08/28 00:09:37;;;;;;;;;;;;;;;-142.75;100.00;77412.88;5057555;28;19912;-67
2022/08/28 00:12:03;;;;;;;;;;;;;;;-142.75;100.00;77401.06;5057741;28;19913;-67
2022/08/28 00:14:28;;;;;;;;;;;;;;;-142.75;100.00;77408.94;5057974;28;19913;-67
2022/08/28 00:16:53;;;;;;;;;;;;;;;-142.75;100.00;77406.97;5057426;28;20321;-66
2022/08/28 00:19:19;;;;;;;;;;;;;;;-142.75;100.00;77406.97;5057288;28;20409;-67
2022/08/28 00:21:45;;;;;;;;;;;;;;;-142.75;100.00;77408.94;5057620;28;20333;-67
2022/08/28 00:24:11;;;;;;;;;;;;;;;-142.75;100.00;77416.81;5057355;28;20579;-67
2022/08/28 00:29:20;;;;;;;;;;;;;;;-142.75;100.00;77436.50;5057453;28;20287;-67
2022/08/28 00:31:45;;;;;;;;;;;;;;;-142.75;100.00;77440.44;5057311;28;19913;-67
2022/08/28 00:34:10;;;;;;;;;;;;;;;-142.75;100.00;77448.34;5072073;28;19912;-67
2022/08/28 00:36:36;;;;;;;;;;;;;;;-142.75;100.00;77448.34;5072069;28;19924;-66
2022/08/28 00:39:02;;;;;;;;;;;;;;;-142.75;100.00;77456.22;5056738;28;20594;-67
2022/08/28 00:41:29;;;;;;;;;;;;;;;-142.75;100.00;77454.25;5056519;28;19920;-67
2022/08/28 00:44:13;;;;;;;;;;;;;;;-142.75;100.00;77466.03;5056745;28;19913;-66
2022/08/28 00:46:39;;;;;;;;;;;;;;;-142.75;100.00;77462.13;5056789;28;19919;-67
2022/08/28 00:49:05;;;;;;;;;;;;;;;-142.75;100.00;77471.97;5056401;28;19919;-66
2022/08/28 00:54:14;;;;;;;;;;;;;;;-142.75;100.00;77470.00;5056674;28;20341;-67
2022/08/28 00:56:40;;;;;;;;;;;;;;;-142.75;100.00;77468.03;5056543;28;19921;-67
2022/08/28 00:59:10;;;;;;;;;;;;;;;-142.75;100.00;77466.03;5038141;28;19912;-67
2022/08/28 01:01:37;;;;;;;;;;;;;;;-142.75;100.00;77483.78;5056524;28;19916;-67
2022/08/28 01:04:05;;;;;;;;;;;;;;;-142.75;100.00;77477.88;5071748;28;19916;-67
2022/08/28 01:06:30;;;;;;;;;;;;;;;-142.75;100.00;77493.63;5055923;28;20003;-67
2022/08/28 01:08:55;;;;;;;;;;;;;;;-142.75;100.00;77491.66;5071331;28;19963;-67
2022/08/28 01:11:21;;;;;;;;;;;;;;;-142.75;100.00;77483.78;5037888;28;20324;-67
2022/08/28 01:13:47;;;;;;;;;;;;;;;-142.75;100.00;77489.69;5056123;28;20407;-67
2022/08/28 01:16:13;;;;;;;;;;;;;;;-142.75;100.00;77487.72;5055251;28;19917;-67
2022/08/28 01:18:40;;;;;;;;;;;;;;;-142.75;100.00;77479.84;5076419;22;19924;-69
2022/08/28 01:21:26;;;;;;;;;;;;;;;-142.75;100.00;77470.00;5050316;28;19917;-69
2022/08/28 01:23:53;;;;;;;;;;;;;;;-142.75;100.00;77466.03;5053040;28;19983;-69
2022/08/28 01:26:20;;;;;;;;;;;;;;;-142.75;100.00;77481.81;5035184;28;19962;-69
2022/08/28 01:28:45;;;;;;;;;;;;;;;-142.75;100.00;77495.59;5052838;28;19912;-69
2022/08/28 01:31:12;;;;;;;;;;;;;;;-142.75;100.00;77485.75;5053106;28;19959;-69
2022/08/28 01:33:37;;;;;;;;;;;;;;;-142.75;100.00;77491.66;5053119;28;20008;-69
2022/08/28 01:36:03;;;;;;;;;;;;;;;-142.75;100.00;77485.75;5052983;28;19944;-68
2022/08/28 01:38:28;;;;;;;;;;;;;;;-142.75;100.00;77491.66;5052571;28;19970;-69
2022/08/28 01:40:53;;;;;;;;;;;;;;;-142.75;100.00;77491.66;5052814;28;20522;-68
2022/08/28 01:43:22;;;;;;;;;;;;;;;-142.75;100.00;77493.63;5052910;28;19912;-69
2022/08/28 01:45:51;;;;;;;;;;;;;;;-142.75;100.00;77497.56;5051585;28;19939;-69
2022/08/28 01:48:17;;;;;;;;;;;;;;;-142.75;100.00;77485.75;5051159;28;19913;-69
2022/08/28 01:50:43;;;;;;;;;;;;;;;-142.75;100.00;77487.72;5052775;28;19939;-69
2022/08/28 01:53:11;;;;;;;;;;;;;;;-142.75;100.00;77503.47;5051484;28;19917;-69
2022/08/28 01:55:36;;;;;;;;;;;;;;;-142.75;100.00;77499.53;5052615;28;20362;-69
2022/08/28 01:58:04;;;;;;;;;;;;;;;-142.75;100.00;77495.59;5052187;28;19923;-69
2022/08/28 02:00:29;;;;;;;;;;;;;;;-142.75;100.00;77493.63;5052593;28;19966;-68
2022/08/28 02:02:55;;;;;;;;;;;;;;;-142.75;100.00;77487.72;5052627;28;19999;-68
2022/08/28 02:05:21;;;;;;;;;;;;;;;-142.75;100.00;77495.59;5052856;28;19917;-67
2022/08/28 02:07:46;;;;;;;;;;;;;;;-142.75;100.00;77511.34;5052274;28;20015;-68
2022/08/28 02:10:12;;;;;;;;;;;;;;;-142.75;100.00;77511.34;5052336;28;20402;-69
2022/08/28 02:12:37;;;;;;;;;;;;;;;-142.75;100.00;77517.25;5052367;28;19913;-69
2022/08/28 02:15:04;;;;;;;;;;;;;;;-142.75;100.00;77525.13;5052349;28;19920;-69
2022/08/28 02:17:29;;;;;;;;;;;;;;;-142.75;100.00;77523.16;5051890;28;19920;-69
2022/08/28 02:19:55;;;;;;;;;;;;;;;-142.75;100.00;77533.00;5050874;28;19970;-68
2022/08/28 02:22:20;;;;;;;;;;;;;;;-142.75;100.00;77523.16;5051638;28;19920;-67
2022/08/28 02:24:45;;;;;;;;;;;;;;;-142.75;100.00;77521.19;5050894;28;19919;-69
2022/08/28 02:27:10;;;;;;;;;;;;;;;-142.75;100.00;77527.09;5051961;28;19999;-69
2022/08/28 02:29:36;;;;;;;;;;;;;;;-142.75;100.00;77521.19;5050862;28;19939;-69
2022/08/28 02:32:01;;;;;;;;;;;;;;;-142.75;100.00;77527.09;5050903;28;20015;-68
2022/08/28 02:34:26;;;;;;;;;;;;;;;-142.75;100.00;77531.03;5052160;28;19917;-68
2022/08/28 02:36:51;;;;;;;;;;;;;;;-142.75;100.00;77538.91;5051758;28;19925;-68
2022/08/28 02:39:16;;;;;;;;;;;;;;;-142.75;100.00;77536.94;5051856;28;19939;-68
2022/08/28 02:41:42;;;;;;;;;;;;;;;-142.75;100.00;77534.97;5050799;28;19912;-68
2022/08/28 02:44:07;;;;;;;;;;;;;;;-142.75;100.00;77550.72;5050747;28;19919;-68
2022/08/28 02:46:32;;;;;;;;;;;;;;;-142.75;100.00;77552.69;5051880;28;20003;-66
2022/08/28 02:48:58;;;;;;;;;;;;;;;-142.75;100.00;77554.66;5050885;28;20355;-68
2022/08/28 02:51:24;;;;;;;;;;;;;;;-142.75;100.00;77542.84;5050737;28;19913;-68
2022/08/28 02:53:50;;;;;;;;;;;;;;;-142.75;100.00;77531.03;5051847;28;19912;-70
2022/08/28 02:56:16;;;;;;;;;;;;;;;-142.75;100.00;77540.88;5051831;28;20436;-68
2022/08/28 02:58:41;;;;;;;;;;;;;;;-142.75;100.00;77542.84;5051533;28;19916;-68
2022/08/28 03:01:09;;;;;;;;;;;;;;;-142.75;100.00;77542.84;5051950;28;19920;-68
2022/08/28 03:03:34;;;;;;;;;;;;;;;-142.75;100.00;77546.78;5051840;28;19913;-68
2022/08/28 03:06:00;;;;;;;;;;;;;;;-142.75;100.00;77552.69;5051900;28;19935;-68
2022/08/28 03:08:26;;;;;;;;;;;;;;;-142.75;100.00;77564.50;5050137;28;19913;-68
2022/08/28 03:10:51;;;;;;;;;;;;;;;-142.75;100.00;77544.81;5051810;28;20409;-68
2022/08/28 03:13:17;;;;;;;;;;;;;;;-142.75;100.00;77540.88;5050576;28;20289;-69
2022/08/28 03:15:43;;;;;;;;;;;;;;;-142.75;100.00;77544.81;5051762;28;20362;-68
2022/08/28 03:18:08;;;;;;;;;;;;;;;-142.75;100.00;77544.81;5051266;28;20368;-69
2022/08/28 03:20:34;;;;;;;;;;;;;;;-142.75;100.00;77546.78;5051750;28;19916;-68
2022/08/28 03:25:43;;;;;;;;;;;;;;;-142.75;100.00;77558.59;5052010;28;20310;-68
2022/08/28 03:28:09;;;;;;;;;;;;;;;-142.75;100.00;77552.69;5051312;28;19912;-68
2022/08/28 03:30:34;;;;;;;;;;;;;;;-142.75;100.00;77548.75;5051645;28;20363;-68
2022/08/28 03:33:00;;;;;;;;;;;;;;;-142.75;100.00;77540.88;5052159;28;19959;-68
2022/08/28 03:35:25;;;;;;;;;;;;;;;-142.75;100.00;77527.09;5055301;28;19912;-68
2022/08/28 03:37:50;;;;;;;;;;;;;;;-142.75;100.00;77527.09;5054920;28;20290;-69
2022/08/28 03:40:15;;;;;;;;;;;;;;;-142.75;100.00;77529.06;5055256;28;20016;-68
2022/08/28 03:42:41;;;;;;;;;;;;;;;-142.75;100.00;77531.03;5055198;28;20289;-68
2022/08/28 03:45:09;;;;;;;;;;;;;;;-142.75;100.00;77542.84;5053901;28;19917;-68
2022/08/28 03:47:36;;;;;;;;;;;;;;;-142.75;100.00;77536.94;5054771;28;20538;-68
2022/08/28 03:50:01;;;;;;;;;;;;;;;-142.75;100.00;77542.84;5054976;28;19942;-69
2022/08/28 03:52:27;;;;;;;;;;;;;;;-142.75;100.00;77533.00;5055072;28;19913;-68
2022/08/28 03:54:52;;;;;;;;;;;;;;;-142.75;100.00;77542.84;5055087;28;19913;-68
2022/08/28 03:57:18;;;;;;;;;;;;;;;-142.75;100.00;77538.91;5054547;28;19967;-68
2022/08/28 03:59:44;;;;;;;;;;;;;;;-142.75;100.00;77533.00;5054848;28;19944;-68
2022/08/28 04:02:09;;;;;;;;;;;;;;;-142.75;100.00;77540.88;5054783;28;19924;-68
2022/08/28 04:04:35;;;;;;;;;;;;;;;-142.75;100.00;77536.94;5054737;28;19992;-68
2022/08/28 04:07:00;;;;;;;;;;;;;;;-142.75;100.00;77544.81;5054455;28;19913;-68
2022/08/28 04:09:25;;;;;;;;;;;;;;;-142.75;100.00;77542.84;5054729;28;20003;-68
2022/08/28 04:11:52;;;;;;;;;;;;;;;-142.75;100.00;77550.72;5054637;28;20264;-68
2022/08/28 04:14:17;;;;;;;;;;;;;;;-142.75;100.00;77538.91;5053358;28;19935;-68
2022/08/28 04:16:43;;;;;;;;;;;;;;;-142.75;100.00;77556.63;5052944;28;19917;-68
2022/08/28 04:19:08;;;;;;;;;;;;;;;-142.75;100.00;77562.53;5052992;28;19917;-67
2022/08/28 04:21:33;;;;;;;;;;;;;;;-142.75;100.00;77566.47;5054477;28;19959;-68
2022/08/28 04:23:58;;;;;;;;;;;;;;;-142.75;100.00;77556.63;5054436;28;19963;-68
2022/08/28 04:26:25;;;;;;;;;;;;;;;-142.75;100.00;77566.47;5054281;28;20420;-69
2022/08/28 04:28:51;;;;;;;;;;;;;;;-142.75;100.00;77568.44;5054018;28;19916;-69
2022/08/28 04:31:17;;;;;;;;;;;;;;;-142.75;100.00;77568.44;5054275;28;19912;-68
2022/08/28 04:33:42;;;;;;;;;;;;;;;-142.75;100.00;77558.59;5054057;28;19967;-69
2022/08/28 04:36:10;;;;;;;;;;;;;;;-142.75;100.00;77564.50;5048877;28;20352;-68
2022/08/28 04:38:35;;;;;;;;;;;;;;;-142.75;100.00;77574.34;5044565;28;20379;-68
2022/08/28 04:41:08;;;;;;;;;;;;;;;-142.75;100.00;77578.28;5054133;28;19966;-68
2022/08/28 04:43:34;;;;;;;;;;;;;;;-142.75;100.00;77578.28;5054058;28;19920;-68
2022/08/28 04:46:02;;;;;;;;;;;;;;;-142.75;100.00;77578.28;5052046;28;19917;-68
2022/08/28 04:48:27;;;;;;;;;;;;;;;-142.75;100.00;77590.09;5053460;28;19936;-68
2022/08/28 04:50:52;;;;;;;;;;;;;;;-142.75;100.00;77594.03;5053969;28;19951;-68
2022/08/28 04:53:18;;;;;;;;;;;;;;;-142.75;100.00;77597.97;5053841;28;19917;-68
2022/08/28 04:55:45;;;;;;;;;;;;;;;-142.75;100.00;77590.09;5053842;28;19917;-69
2022/08/28 04:58:11;;;;;;;;;;;;;;;-142.75;100.00;77594.03;5053364;28;20382;-68
2022/08/28 05:00:37;;;;;;;;;;;;;;;-142.75;100.00;77592.06;5052419;28;19920;-69
2022/08/28 05:03:02;;;;;;;;;;;;;;;-142.75;100.00;77597.97;5053710;28;19913;-68
2022/08/28 05:05:27;;;;;;;;;;;;;;;-142.75;100.00;77599.94;5053660;28;19920;-68
2022/08/28 05:07:52;;;;;;;;;;;;;;;-142.75;100.00;77609.78;5053266;28;19913;-68
2022/08/28 05:10:17;;;;;;;;;;;;;;;-142.75;100.00;77623.56;5052275;28;19913;-68
2022/08/28 05:12:43;;;;;;;;;;;;;;;-142.75;100.00;77613.72;5053443;28;19955;-69
2022/08/28 05:15:08;;;;;;;;;;;;;;;-142.75;100.00;77629.47;5053417;28;20410;-68
2022/08/28 05:17:33;;;;;;;;;;;;;;;-142.75;100.00;77621.59;5052890;28;19916;-68
2022/08/28 05:19:59;;;;;;;;;;;;;;;-142.75;100.00;77605.84;5053116;28;19958;-68
2022/08/28 05:22:25;;;;;;;;;;;;;;;-142.75;100.00;77596.00;5053317;28;19982;-68
2022/08/28 05:24:50;;;;;;;;;;;;;;;-142.75;100.00;77592.06;5053260;28;19967;-68
2022/08/28 05:27:16;;;;;;;;;;;;;;;-142.75;100.00;77570.41;5052965;28;19913;-69
2022/08/28 05:29:41;;;;;;;;;;;;;;;-142.75;100.00;77558.59;5053059;28;19912;-68
2022/08/28 05:32:06;;;;;;;;;;;;;;;-142.75;100.00;77550.72;5051797;28;19913;-68
2022/08/28 05:34:32;;;;;;;;;;;;;;;-142.75;100.00;77546.78;5053095;28;20271;-68
2022/08/28 05:36:57;;;;;;;;;;;;;;;-142.75;100.00;77531.03;5052642;28;20008;-68
2022/08/28 05:39:22;;;;;;;;;;;;;;;-142.75;100.00;77511.34;5052939;28;20301;-68
2022/08/28 05:41:48;;;;;;;;;;;;;;;-142.75;100.00;77491.66;5052989;28;19917;-68
2022/08/28 05:44:14;;;;;;;;;;;;;;;-142.75;100.00;77466.03;5051584;28;19947;-69
2022/08/28 05:46:41;;;;;;;;;;;;;;;-142.75;100.00;77454.25;5052434;28;19913;-68
2022/08/28 05:49:07;;;;;;;;;;;;;;;-142.75;100.00;77430.59;5052722;28;20001;-69
2022/08/28 05:51:33;;;;;;;;;;;;;;;-142.75;100.00;77395.16;5051505;28;19970;-68
2022/08/28 05:53:59;;;;;;;;;;;;;;;-142.75;100.00;77373.50;5052731;28;19913;-68
2022/08/28 05:56:26;;;;;;;;;;;;;;;-142.75;100.00;77345.94;5050561;28;19913;-68
2022/08/28 05:58:51;;;;;;;;;;;;;;;-142.75;100.00;77318.38;5052199;28;19913;-68
2022/08/28 06:01:18;;;;;;;;;;;;;;;-142.75;100.00;77288.84;5052622;28;19920;-68
2022/08/28 06:03:45;;;;;;;;;;;;;;;-142.75;100.00;77247.50;5051325;28;19913;-68
2022/08/28 06:06:11;;;;;;;;;;;;;;;-142.75;100.00;77231.75;5052498;28;19959;-68
2022/08/28 06:08:37;;;;;;;;;;;;;;;-142.75;100.00;77198.28;5052097;28;20290;-68
2022/08/28 06:11:02;;;;;;;;;;;;;;;-142.75;100.00;77164.81;5052488;28;19935;-68
2022/08/28 06:13:28;;;;;;;;;;;;;;;-142.75;100.00;77137.25;5052345;28;19913;-69
2022/08/28 06:15:53;;;;;;;;;;;;;;;-142.75;100.00;77101.81;5052313;28;19913;-69
2022/08/28 06:18:19;;;;;;;;;;;;;;;-142.75;100.00;77084.09;5051796;28;20318;-68
2022/08/28 06:20:45;;;;;;;;;;;;;;;-142.75;100.00;77058.50;5051076;28;19920;-68
2022/08/28 06:23:11;;;;;;;;;;;;;;;-142.75;100.00;77034.88;5052270;28;19977;-68
2022/08/28 06:25:44;;;;;;;;;;;;;;;-142.75;100.00;77017.16;5052298;28;20352;-68
2022/08/28 06:28:09;;;;;;;;;;;;;;;-142.75;100.00;76991.56;5051799;28;19913;-68
2022/08/28 06:30:38;;;;;;;;;;;;;;;-142.75;100.00;76975.81;5052126;28;20003;-68
2022/08/28 06:33:04;;;;;;;;;;;;;;;-142.75;100.00;76960.06;5052197;28;19913;-69
2022/08/28 06:35:30;;;;;;;;;;;;;;;-142.75;100.00;76948.25;5050928;28;19960;-68
2022/08/28 06:37:56;;;;;;;;;;;;;;;-142.75;100.00;76948.25;5051690;28;19952;-69
2022/08/28 06:40:21;;;;;;;;;;;;;;;-142.75;100.00;76928.56;5052110;28;19913;-69
2022/08/28 06:42:46;;;;;;;;;;;;;;;-142.75;100.00;76920.69;5051991;28;19975;-68
2022/08/28 06:45:11;;;;;;;;;;;;;;;-142.75;100.00;76881.31;5050704;28;20009;-69
2022/08/28 06:47:36;;;;;;;;;;;;;;;-142.75;100.00;76871.47;5051695;28;20378;-69
2022/08/28 06:50:02;;;;;;;;;;;;;;;-142.75;100.00;76853.75;5051916;28;19948;-69
2022/08/28 06:52:27;;;;;;;;;;;;;;;-142.75;100.00;76826.19;5051952;28;19919;-69
2022/08/28 06:54:52;;;;;;;;;;;;;;;-142.75;100.00;76847.84;5052003;28;20031;-69
2022/08/28 06:57:17;;;;;;;;;;;;;;;-142.75;100.00;76814.38;5051605;28;19939;-69
2022/08/28 06:59:43;;;;;;;;;;;;;;;-142.75;100.00;76802.56;5051714;28;19919;-69
2022/08/28 07:02:08;;;;;;;;;;;;;;;-142.75;100.00;76782.91;5051943;28;20302;-69
2022/08/28 07:04:33;;;;;;;;;;;;;;;-142.75;100.00;76771.09;5050930;28;19970;-68
2022/08/28 07:06:58;;;;;;;;;;;;;;;-142.75;100.00;76788.81;5051560;28;19975;-69
2022/08/28 07:09:24;;;;;;;;;;;;;;;-142.75;100.00;76780.94;5054743;28;20123;-69
2022/08/28 07:11:50;;;;;;;;;;;;;;;-142.75;100.00;76751.41;5054540;28;19924;-70
2022/08/28 07:14:15;;;;;;;;;;;;;;;-142.75;100.00;76723.84;5055695;28;19974;-69
2022/08/28 07:16:40;;;;;;;;;;;;;;;-142.75;100.00;76708.09;5055376;28;19916;-69
2022/08/28 07:19:06;;;;;;;;;;;;;;;-142.75;100.00;76684.47;5078512;22;20024;-67
2022/08/28 07:21:35;;;;;;;;;;;;;;;-142.75;100.00;76672.66;5056933;28;19923;-66
2022/08/28 07:24:03;;;;;;;;;;;;;;;-142.75;100.00;76668.72;5057908;28;19913;-66
2022/08/28 07:26:28;;;;;;;;;;;;;;;-142.75;100.00;76647.06;5058793;28;20305;-67
2022/08/28 07:28:53;;;;;;;;;;;;;;;-142.75;100.00;76609.66;5058480;28;19920;-66
2022/08/28 07:31:24;;;;;;;;;;;;;;;-142.75;100.00;76588.00;5058636;28;19942;-66
2022/08/28 07:33:50;;;;;;;;;;;;;;;-142.75;100.00;76584.06;5058737;28;20415;-66
2022/08/28 07:36:16;;;;;;;;;;;;;;;-142.75;100.00;76591.94;5058667;28;20011;-67
2022/08/28 07:38:42;;;;;;;;;;;;;;;-142.75;100.00;76625.41;5058588;28;19917;-66
2022/08/28 07:41:13;;;;;;;;;;;;;;;-142.75;100.00;76617.53;5056936;28;19923;-66
2022/08/28 07:46:22;;;;;;;;;;;;;;;-142.75;100.00;76562.41;5058205;28;19920;-66
2022/08/28 07:48:47;;;;;;;;;;;;;;;-142.75;100.00;76552.56;5056757;28;19917;-67
2022/08/28 07:51:12;;;;;;;;;;;;;;;-142.75;100.00;76589.97;5058085;28;20302;-67
2022/08/28 07:53:38;;;;;;;;;;;;;;;-142.75;100.00;76605.72;5058910;28;19927;-67
2022/08/28 07:56:04;;;;;;;;;;;;;;;-142.75;100.00;76578.16;5059215;28;19913;-67
2022/08/28 07:58:29;;;;;;;;;;;;;;;-142.75;100.00;76530.91;5058871;28;19917;-67
2022/08/28 08:00:54;;;;;;;;;;;;;;;-142.75;100.00;76471.88;5059282;28;20259;-66
2022/08/28 08:03:21;;;;;;;;;;;;;;;-142.75;100.00;76471.88;5059351;28;20111;-67
2022/08/28 08:05:54;;;;;;;;;;;;;;;-142.75;100.00;76442.34;5058468;28;19913;-66
2022/08/28 08:08:20;;;;;;;;;;;;;;;-142.75;100.00;76465.97;5058069;28;19943;-66
2022/08/28 08:10:53;;;;;;;;;;;;;;;-142.75;100.00;76428.56;5058921;28;20275;-66
2022/08/28 08:13:19;;;;;;;;;;;;;;;-142.75;100.00;76412.81;5058413;28;19912;-66
2022/08/28 08:15:44;;;;;;;;;;;;;;;-142.75;100.00;76391.16;5058297;28;19982;-66
2022/08/28 08:18:09;;;;;;;;;;;;;;;-142.75;100.00;76369.50;5057685;28;19932;-67
2022/08/28 08:20:34;;;;;;;;;;;;;;;-142.75;100.00;76389.19;5056418;28;19992;-66
2022/08/28 08:22:59;;;;;;;;;;;;;;;-142.75;100.00;76353.78;5058020;28;20435;-67
2022/08/28 08:25:24;;;;;;;;;;;;;;;-142.75;100.00;76330.16;5057727;28;19963;-66
2022/08/28 08:27:50;;;;;;;;;;;;;;;-142.75;100.00;76332.13;5057361;28;19919;-67
2022/08/28 08:30:15;;;;;;;;;;;;;;;-142.75;100.00;76286.84;5057420;28;19913;-66
2022/08/28 08:32:40;;;;;;;;;;;;;;;-142.75;100.00;76292.75;5057350;28;20278;-67
2022/08/28 08:35:06;;;;;;;;;;;;;;;-142.75;100.00;76314.41;5057051;28;19912;-66
2022/08/28 08:37:31;;;;;;;;;;;;;;;-142.75;100.00;76292.75;5056586;28;20417;-66
2022/08/28 08:39:56;;;;;;;;;;;;;;;-142.75;100.00;76314.41;5054233;28;19920;-66
2022/08/28 08:42:29;;;;;;;;;;;;;;;-142.75;100.00;76341.97;5054889;28;19913;-66
2022/08/28 08:44:56;;;;;;;;;;;;;;;-142.75;100.00;76328.19;5055735;28;19919;-66
2022/08/28 08:47:44;;;;;;;;;;;;;;;-142.75;100.00;76277.00;5055153;28;19920;-66
2022/08/28 08:50:14;;;;;;;;;;;;;;;-142.75;100.00;76235.66;5050944;28;19912;-66
2022/08/28 08:52:42;;;;;;;;;;;;;;;-142.75;100.00;76202.19;5056707;28;19916;-67
2022/08/28 08:55:15;;;;;;;;;;;;;;;-142.75;98.00;76219.91;5057873;28;20414;-67
2022/08/28 08:57:41;;;;;;;;;;;;;;;-142.75;95.94;76190.41;5056960;28;19917;-66
2022/08/28 09:00:08;;;;;;;;;;;;;;;-142.75;100.00;76184.50;5055178;28;19924;-66
2022/08/28 09:02:37;;;;;;;;;;;;;;;-142.75;98.61;76172.69;5054901;28;19920;-67
2022/08/28 09:05:04;;;;;;;;;;;;;;;-142.75;99.35;76227.78;5057318;28;19974;-66
2022/08/28 09:07:38;;;;;;;;;;;;;;;-142.75;95.15;76200.25;5056242;28;20349;-66
2022/08/28 09:10:10;;;;;;;;;;;;;;;-142.75;98.80;76188.44;5056340;28;20302;-67
2022/08/28 09:12:48;;;;;;;;;;;;;;;-142.75;99.22;76206.13;5056829;28;19913;-67
2022/08/28 09:15:16;;;;;;;;;;;;;;;-142.75;98.10;76160.88;5056658;28;20493;-67
2022/08/28 09:17:46;;;;;;;;;;;;;;;-142.75;92.89;76131.34;5056285;28;19927;-67
2022/08/28 09:20:13;;;;;;;;;;;;;;;-142.75;86.08;76111.66;5055087;28;19917;-67
2022/08/28 09:22:43;;;;;;;;;;;;;;;-142.75;88.09;76200.25;5056444;28;19916;-67
2022/08/28 09:25:09;;;;;;;;;;;;;;;-142.75;92.71;76186.47;5054143;28;20014;-67
2022/08/28 09:27:34;;;;;;;;;;;;;;;-142.75;95.32;76156.94;5055714;28;19963;-67
2022/08/28 09:30:09;;;;;;;;;;;;;;;-142.75;92.98;76170.72;5055876;28;19921;-67
2022/08/28 09:32:37;;;;;;;;;;;;;;;-142.75;93.59;76212.03;5049226;28;19951;-66
2022/08/28 09:35:21;;;;;;;;;;;;;;;-142.75;99.37;76217.94;5045476;28;20003;-66
2022/08/28 09:37:46;;;;;;;;;;;;;;;-142.75;95.14;76214.00;5040069;28;19921;-66
2022/08/28 09:40:20;;;;;;;;;;;;;;;-142.75;95.66;76257.31;5043159;28;19917;-66
2022/08/28 09:46:01;;;;;;;;;;;;;;;-142.75;99.95;76251.41;5048680;28;19935;-66
2022/08/28 09:48:39;;;;;;;;;;;;;;;-142.75;95.96;76198.28;5045533;28;20008;-67
2022/08/28 09:51:12;;;;;;;;;;;;;;;-142.75;92.04;76182.53;5047644;28;19917;-67
2022/08/28 09:53:55;;;;;;;;;;;;;;;-142.75;84.81;76103.78;5041368;28;21591;-66
2022/08/28 09:56:23;;;;;;;;;;;;;;;-142.75;82.84;76111.66;5041665;28;19921;-67
2022/08/28 09:58:51;;;;;;;;;;;;;;;-142.75;82.33;76048.69;5051493;28;19980;-66
2022/08/28 10:01:16;;;;;;;;;;;;;;;-142.75;83.42;75975.84;5042851;28;19946;-67
2022/08/28 10:03:49;;;;;;;;;;;;;;;-142.75;80.41;76021.13;5052050;28;19920;-67
2022/08/28 10:06:20;;;;;;;;;;;;;;;-142.75;80.83;76198.28;5044437;28;20290;-67
2022/08/28 10:08:53;;;;;;;;;;;;;;;-142.75;80.96;76078.19;5047996;28;19913;-66
2022/08/28 10:11:25;;;;;;;;;;;;;;;-142.75;80.61;76027.03;5046625;28;19923;-67
2022/08/28 10:14:03;;;;;;;;;;;;;;;-142.75;81.78;76032.94;5056072;28;19920;-67
2022/08/28 10:16:41;;;;;;;;;;;;;;;-142.75;77.53;75983.72;5047236;28;19921;-67
2022/08/28 10:19:12;;;;;;;;;;;;;;;-142.75;75.99;75966.00;5033017;28;19982;-67
2022/08/28 10:21:37;;;;;;;;;;;;;;;-142.75;78.50;75967.97;5034249;28;19936;-67
2022/08/28 10:24:21;;;;;;;;;;;;;;;-142.75;75.23;75958.16;5035711;28;19917;-68
2022/08/28 10:26:54;;;;;;;;;;;;;;;-142.75;71.85;75924.69;5034011;28;19913;-69
2022/08/28 10:29:28;;;;;;;;;;;;;;;-142.75;72.88;75983.72;5033905;28;20055;-66
2022/08/28 10:32:03;;;;;;;;;;;;;;;-142.75;76.66;76019.16;5033744;28;19917;-66
2022/08/28 10:34:45;;;;;;;;;;;;;;;-142.75;75.44;76101.81;5051856;28;19931;-65
2022/08/28 10:37:29;;;;;;;;;;;;;;;-142.75;80.23;76241.56;5054514;28;19925;-65
2022/08/28 10:39:59;;;;;;;;;;;;;;;-142.75;87.19;76278.97;5055542;28;20400;-66
2022/08/28 10:42:28;;;;;;;;;;;;;;;-142.75;90.47;76286.84;5054882;28;20389;-65
2022/08/28 10:44:57;;;;;;;;;;;;;;;-142.75;93.25;76269.13;5055285;28;19932;-65
2022/08/28 10:47:24;;;;;;;;;;;;;;;-142.75;87.39;76255.34;5054953;28;19939;-66
2022/08/28 10:49:52;;;;;;;;;;;;;;;-142.75;80.90;76219.91;5055225;28;19980;-65
2022/08/28 10:52:25;;;;;;;;;;;;;;;-142.75;80.82;76168.75;5054646;28;20358;-65
2022/08/28 10:54:56;;;;;;;;;;;;;;;-142.75;82.84;76066.41;5055876;28;19920;-64
2022/08/28 10:57:21;;;;;;;;;;;;;;;-142.75;78.96;75987.66;5055294;28;19923;-64
2022/08/28 10:59:49;;;;;;;;;;;;;;;-142.75;76.30;75981.75;5054725;28;19984;-65
2022/08/28 11:02:16;;;;;;;;;;;;;;;-142.75;73.83;76054.59;5053722;28;19913;-65
2022/08/28 11:04:42;;;;;;;;;;;;;;;-142.75;74.44;76050.66;5054693;28;19936;-65
2022/08/28 11:07:10;;;;;;;;;;;;;;;-142.75;75.47;76025.06;5056989;28;19912;-64
2022/08/28 11:09:36;;;;;;;;;;;;;;;-142.75;71.78;75985.69;5059274;28;19913;-64
2022/08/28 11:12:03;;;;;;;;;;;;;;;-142.75;71.98;75950.28;5057788;28;19913;-65
2022/08/28 11:14:48;;;;;;;;;;;;;;;-142.75;71.74;75869.56;5054140;28;20378;-65
2022/08/28 11:17:26;;;;;;;;;;;;;;;-142.75;69.66;75865.63;5054182;28;20020;-65
2022/08/28 11:19:57;;;;;;;;;;;;;;;-142.75;67.84;75908.94;5054133;28;19917;-64
2022/08/28 11:22:25;;;;;;;;;;;;;;;-142.75;69.26;75960.13;5056560;28;19913;-65
2022/08/28 11:24:51;;;;;;;;;;;;;;;-142.75;70.35;76027.03;5054443;28;19920;-65
2022/08/28 11:27:20;;;;;;;;;;;;;;;-142.75;71.72;75983.72;5054321;28;19913;-65
2022/08/28 11:29:59;;;;;;;;;;;;;;;-142.75;71.01;75967.97;5054752;28;19940;-65
2022/08/28 11:32:30;;;;;;;;;;;;;;;-142.75;68.44;76019.16;5054071;28;19913;-65
2022/08/28 11:35:15;;;;;;;;;;;;;;;-142.75;68.61;75971.91;5053155;28;19928;-65
2022/08/28 11:37:42;;;;;;;;;;;;;;;-142.75;70.06;76054.59;5031267;28;20364;-66
2022/08/28 11:40:17;;;;;;;;;;;;;;;-142.75;73.28;76060.50;5052372;28;19962;-66
2022/08/28 11:42:47;;;;;;;;;;;;;;;-142.75;73.53;76050.66;5052952;28;19913;-64
2022/08/28 11:45:20;;;;;;;;;;;;;;;-142.75;75.22;76105.75;5051106;28;19913;-63
2022/08/28 11:47:47;;;;;;;;;;;;;;;-142.75;78.49;76121.50;5051928;28;20373;-66
2022/08/28 11:50:19;;;;;;;;;;;;;;;-142.75;78.50;76231.72;5053098;28;19965;-66
2022/08/28 11:52:47;;;;;;;;;;;;;;;-142.75;77.19;76208.09;5052499;28;19919;-66
2022/08/28 11:55:44;;;;;;;;;;;;;;;-142.75;75.24;76180.56;5053680;28;19952;-66
2022/08/28 11:58:17;;;;;;;;;;;;;;;-142.75;75.48;76186.47;5032645;28;19917;-66
2022/08/28 12:00:51;;;;;;;;;;;;;;;-142.75;72.11;76147.09;5056430;28;19919;-66
2022/08/28 12:03:35;;;;;;;;;;;;;;;-142.75;70.37;76011.28;5054960;28;19913;-66
2022/08/28 12:06:01;;;;;;;;;;;;;;;-142.75;68.43;76036.88;5055637;28;20043;-66
2022/08/28 12:08:45;;;;;;;;;;;;;;;-142.75;69.22;75967.97;5055650;28;19917;-66
2022/08/28 12:11:30;;;;;;;;;;;;;;;-142.75;71.81;76048.69;5056201;28;19912;-66
2022/08/28 12:13:56;;;;;;;;;;;;;;;-142.75;73.60;76060.50;5055776;28;19919;-66
2022/08/28 12:16:21;;;;;;;;;;;;;;;-142.75;73.74;76070.34;5054691;28;19948;-66
2022/08/28 12:18:46;;;;;;;;;;;;;;;-142.75;73.27;75987.66;5055373;28;19921;-66
2022/08/28 12:21:20;;;;;;;;;;;;;;;-142.75;72.27;75964.03;5055644;28;20003;-66
2022/08/28 12:24:03;;;;;;;;;;;;;;;-142.75;69.65;76011.28;5056856;28;20267;-66
2022/08/28 12:26:40;;;;;;;;;;;;;;;-142.75;68.56;75932.56;5055843;28;19921;-66
2022/08/28 12:29:07;;;;;;;;;;;;;;;-142.75;66.21;75932.56;5056137;28;19913;-66
2022/08/28 12:34:41;;;;;;;;;;;;;;;-142.75;67.14;75908.94;5056221;28;19924;-66
2022/08/28 12:37:22;;;;;;;;;;;;;;;-142.75;65.16;75928.63;5055448;28;20398;-66
2022/08/28 12:39:47;;;;;;;;;;;;;;;-142.75;67.04;75989.63;5054521;28;19916;-66
2022/08/28 12:42:16;;;;;;;;;;;;;;;-142.75;70.52;76044.75;5054713;28;19912;-66